MSC Alghero — 3EVX2 — position and weather

sailwx.info

Track history (hours):
 
Tides and Currents Weather Stations Pressure Air Temp Water Temp Dewpoint Dewpoint Depression Visibility Wind Speed Wind Dir Waves Ship Positions

MSC Alghero

Last reported at 2018-Apr-19 01:07 UTC. Time now 2018-Apr-21 15:36 UTC.
Position N 21°47' E 067°43'.

Length 300 m; draft 13 m.

Type: Cargo ship. MMSI: 351819000.

Date/timePositionNaut miles runAvg speedWind from/ knotsBaromVisibWave heightAir tempDewpointWater temp
2018-Apr-19 01:07N 21°47' E 067°43'6716.8
2018-Apr-18 21:07N 22°20' E 068°46'4 0.1
2018-Apr-17 03:59N 22°17' E 068°47'16514.7
2018-Apr-16 16:46N 20°23' E 070°55'415.8
2018-Apr-16 16:30N 20°21' E 070°59'815.7
2018-Apr-16 15:59N 20°19' E 071°07'816.3
2018-Apr-16 15:29N 20°16' E 071°15'816.8
2018-Apr-16 15:00N 20°13' E 071°23'816.4
2018-Apr-16 14:30N 20°13' E 071°32'816.3
2018-Apr-16 14:01N 20°09' E 071°39'816.3
2018-Apr-16 13:30N 20°04' E 071°46'816.2
2018-Apr-16 13:00N 19°59' E 071°53'917.0
2018-Apr-16 12:30N 19°56' E 072°02'816.8
2018-Apr-16 12:00N 19°54' E 072°10'714.6
2018-Apr-16 11:30N 19°53' E 072°18'816.0
2018-Apr-16 11:00N 20°00' E 072°20'815.8
2018-Apr-16 10:30N 20°08' E 072°23'816.3
2018-Apr-16 10:00N 20°15' E 072°26'816.0
2018-Apr-16 09:30N 20°23' E 072°29'1815.9
2018-Apr-16 08:21N 20°41' E 072°33'815.9
2018-Apr-16 07:53N 20°48' E 072°33'513.9
2018-Apr-16 07:30N 20°53' E 072°34'5 9.2
2018-Apr-16 07:00N 20°58' E 072°34'5 9.1
2018-Apr-16 06:30N 21°03' E 072°35'3 5.0
2018-Apr-16 05:59N 21°05' E 072°36'2 3.7
2018-Apr-16 05:29N 21°05' E 072°38'0 0.0
2018-Apr-16 04:51N 21°05' E 072°38'0 0.0
2018-Apr-16 04:21N 21°05' E 072°38'0 0.0
2018-Apr-16 03:57N 21°05' E 072°38'0 0.0
2018-Apr-16 03:27N 21°05' E 072°38'0 0.0
2018-Apr-16 02:51N 21°05' E 072°38'0 0.0
2018-Apr-16 02:27N 21°05' E 072°38'0 0.0
2018-Apr-16 01:57N 21°05' E 072°38'0 0.0
2018-Apr-16 01:27N 21°05' E 072°38'0 0.0
2018-Apr-16 00:57N 21°05' E 072°38'0 0.0
2018-Apr-16 00:27N 21°05' E 072°38'0 0.0
2018-Apr-15 23:57N 21°05' E 072°38'0 0.0
2018-Apr-15 23:27N 21°05' E 072°38'0 0.0
2018-Apr-15 22:51N 21°05' E 072°38'0 0.0
2018-Apr-15 22:27N 21°05' E 072°38'0 0.0
2018-Apr-15 21:57N 21°05' E 072°38'0 0.0
2018-Apr-15 21:21N 21°05' E 072°38'0 0.0
2018-Apr-15 20:57N 21°05' E 072°38'0 0.0
2018-Apr-15 19:45N 21°05' E 072°38'0 0.0
2018-Apr-15 19:27N 21°05' E 072°38'0 0.0
2018-Apr-15 18:57N 21°05' E 072°38'0 0.0
2018-Apr-15 18:27N 21°05' E 072°38'0 0.0
2018-Apr-15 17:51N 21°05' E 072°38'0 0.0
2018-Apr-15 17:27N 21°05' E 072°38'0 0.0
2018-Apr-15 16:57N 21°05' E 072°38'0 0.0
2018-Apr-15 16:27N 21°05' E 072°38'0 0.0
2018-Apr-15 15:57N 21°05' E 072°38'0 0.0
2018-Apr-15 15:27N 21°05' E 072°38'0 0.0
2018-Apr-15 14:57N 21°05' E 072°38'0 0.0
2018-Apr-15 14:27N 21°05' E 072°38'0 0.0
2018-Apr-15 13:57N 21°05' E 072°38'0 0.0
2018-Apr-15 13:27N 21°05' E 072°38'0 0.0
2018-Apr-15 12:57N 21°05' E 072°38'0 0.0
2018-Apr-15 12:21N 21°05' E 072°38'0 0.0
2018-Apr-15 11:57N 21°05' E 072°38'0 0.0
2018-Apr-15 11:15N 21°05' E 072°38'0 0.0
2018-Apr-15 10:57N 21°05' E 072°38'0 0.0
2018-Apr-15 10:30N 21°05' E 072°38'1 1.3
2018-Apr-15 10:00N 21°05' E 072°37'3 6.8
2018-Apr-15 09:30N 21°03' E 072°34'4 8.6
2018-Apr-15 09:00N 20°59' E 072°34'4 8.2
2018-Apr-15 08:30N 20°55' E 072°33'1 2.4
2018-Apr-15 08:00N 20°53' E 072°33'3 5.6
2018-Apr-15 07:30N 20°51' E 072°33'510.0
2018-Apr-15 06:59N 20°45' E 072°33'5 9.7
2018-Apr-15 06:30N 20°41' E 072°33'6 9.4
2018-Apr-15 05:52N 20°35' E 072°32'3 9.5
2018-Apr-15 05:30N 20°31' E 072°32'5 8.8
2018-Apr-15 04:58N 20°27' E 072°32'4 9.1
2018-Apr-15 04:30N 20°22' E 072°32'7 9.2
2018-Apr-15 03:42N 20°15' E 072°31'2 9.2
2018-Apr-15 03:30N 20°13' E 072°31'5 9.0
2018-Apr-15 02:57N 20°08' E 072°30'5 9.3
2018-Apr-15 02:27N 20°04' E 072°30'5 9.0
2018-Apr-15 01:53N 19°58' E 072°30'3 8.6
2018-Apr-15 01:30N 19°55' E 072°29'5 8.5
2018-Apr-15 00:58N 19°51' E 072°29'4 8.4
2018-Apr-15 00:28N 19°47' E 072°29'4 8.4
2018-Apr-15 00:00N 19°43' E 072°29'4 8.4
2018-Apr-14 23:30N 19°38' E 072°28'4 8.3
2018-Apr-14 23:00N 19°34' E 072°28'4 8.4
2018-Apr-14 22:30N 19°30' E 072°27'5 8.6
2018-Apr-14 21:56N 19°25' E 072°26'5 8.2
2018-Apr-14 21:18N 19°20' E 072°27'3 8.7
2018-Apr-14 20:57N 19°17' E 072°28'4 8.7
2018-Apr-14 20:30N 19°13' E 072°28'4 7.8
2018-Apr-14 19:55N 19°10' E 072°26'3 6.9
2018-Apr-14 19:30N 19°07' E 072°26'4 8.1
2018-Apr-14 19:00N 19°04' E 072°30'4 8.3
2018-Apr-14 18:30N 19°00' E 072°31'4 8.4
2018-Apr-14 18:00N 18°56' E 072°33'4 8.7
2018-Apr-14 17:30N 18°52' E 072°35'4 7.7
2018-Apr-14 17:00N 18°51' E 072°38'510.1
2018-Apr-14 16:28N 18°50' E 072°44'11 0.4
2018-Apr-13 16:05N 18°56' E 072°54'111.4
2018-Apr-13 15:58N 18°55' E 072°52'5 9.7
2018-Apr-13 15:30N 18°52' E 072°49'4 7.5
2018-Apr-13 14:58N 18°50' E 072°46'3 7.1
2018-Apr-13 14:30N 18°50' E 072°42'4 8.1
2018-Apr-13 14:00N 18°50' E 072°38'4 8.0
2018-Apr-13 13:30N 18°50' E 072°34'4 8.7
2018-Apr-13 13:00N 18°50' E 072°29'612.9
2018-Apr-13 12:31N 18°50' E 072°22'713.7
2018-Apr-13 11:59N 18°51' E 072°15'916.4
2018-Apr-13 11:28N 18°52' E 072°06'917.2
2018-Apr-13 10:56N 18°52' E 071°56'717.2
2018-Apr-13 10:30N 18°52' E 071°48'917.1
2018-Apr-13 09:58N 18°52' E 071°39'817.1
2018-Apr-13 09:30N 18°53' E 071°30'917.3
2018-Apr-13 09:00N 18°53' E 071°21'816.8
2018-Apr-13 08:30N 18°53' E 071°12'816.7
2018-Apr-13 08:00N 18°53' E 071°04'815.6
2018-Apr-13 07:30N 18°58' E 070°57'916.9
2018-Apr-13 06:56N 19°06' E 070°51'817.0
2018-Apr-13 06:28N 19°12' E 070°45'817.0
2018-Apr-13 06:00N 19°18' E 070°41'917.1
2018-Apr-13 05:30N 19°25' E 070°36'816.0
2018-Apr-13 05:00N 19°32' E 070°31'917.1
2018-Apr-13 04:29N 19°39' E 070°25'817.4
2018-Apr-13 04:00N 19°46' E 070°19'817.2
2018-Apr-13 03:30N 19°52' E 070°14'816.3
2018-Apr-13 03:00N 19°60' E 070°10'917.0
2018-Apr-13 02:30N 20°07' E 070°05'2317.0
2018-Apr-13 01:08N 20°26' E 069°51'216.6
2018-Apr-13 01:00N 20°28' E 069°50'1016.7
2018-Apr-13 00:26N 20°36' E 069°44'716.8
2018-Apr-13 00:00N 20°42' E 069°40'2616.8
2018-Apr-12 22:27N 21°03' E 069°23'2517.0
2018-Apr-12 20:58N 21°24' E 069°08'817.2
2018-Apr-12 20:30N 21°30' E 069°03'816.8
2018-Apr-12 20:00N 21°35' E 068°55'1216.9
2018-Apr-12 19:17N 21°44' E 068°46'2117.4
2018-Apr-12 18:04N 22°01' E 068°33'117.4
2018-Apr-12 18:00N 22°02' E 068°33'2716.9
2018-Apr-12 16:25N 22°24' E 068°16'817.2
2018-Apr-12 15:58N 22°31' E 068°12'  
2018-Apr-09 04:02N 23°57' E 065°56'017.8
2018-Apr-09 04:00N 23°56' E 065°56'3217.9
2018-Apr-09 02:14N 23°33' E 065°32'1017.6
2018-Apr-09 01:41N 23°26' E 065°25'417.6
2018-Apr-09 01:28N 23°23' E 065°22'  
Track history (hours):
 
Tides and Currents Weather Stations Pressure Air Temp Water Temp Dewpoint Dewpoint Depression Visibility Wind Speed Wind Dir Waves Ship Positions

MSC Alghero

Last reported at 2018-Apr-19 01:07 UTC. Time now 2018-Apr-21 15:36 UTC.
Position N 21°47' E 067°43'.

Length 300 m; draft 13 m.

Type: Cargo ship. MMSI: 351819000.

Date/timePositionNaut miles runAvg speedWind from/ knotsBaromVisibWave heightAir tempDewpointWater temp
2018-Apr-19 01:07N 21°47' E 067°43'6716.8
2018-Apr-18 21:07N 22°20' E 068°46'4 0.1
2018-Apr-17 03:59N 22°17' E 068°47'16514.7
2018-Apr-16 16:46N 20°23' E 070°55'415.8
2018-Apr-16 16:30N 20°21' E 070°59'815.7
2018-Apr-16 15:59N 20°19' E 071°07'816.3
2018-Apr-16 15:29N 20°16' E 071°15'816.8
2018-Apr-16 15:00N 20°13' E 071°23'816.4
2018-Apr-16 14:30N 20°13' E 071°32'816.3
2018-Apr-16 14:01N 20°09' E 071°39'816.3
2018-Apr-16 13:30N 20°04' E 071°46'816.2
2018-Apr-16 13:00N 19°59' E 071°53'917.0
2018-Apr-16 12:30N 19°56' E 072°02'816.8
2018-Apr-16 12:00N 19°54' E 072°10'714.6
2018-Apr-16 11:30N 19°53' E 072°18'816.0
2018-Apr-16 11:00N 20°00' E 072°20'815.8
2018-Apr-16 10:30N 20°08' E 072°23'816.3
2018-Apr-16 10:00N 20°15' E 072°26'816.0
2018-Apr-16 09:30N 20°23' E 072°29'1815.9
2018-Apr-16 08:21N 20°41' E 072°33'815.9
2018-Apr-16 07:53N 20°48' E 072°33'513.9
2018-Apr-16 07:30N 20°53' E 072°34'5 9.2
2018-Apr-16 07:00N 20°58' E 072°34'5 9.1
2018-Apr-16 06:30N 21°03' E 072°35'3 5.0
2018-Apr-16 05:59N 21°05' E 072°36'2 3.7
2018-Apr-16 05:29N 21°05' E 072°38'0 0.0
2018-Apr-16 04:51N 21°05' E 072°38'0 0.0
2018-Apr-16 04:21N 21°05' E 072°38'0 0.0
2018-Apr-16 03:57N 21°05' E 072°38'0 0.0
2018-Apr-16 03:27N 21°05' E 072°38'0 0.0
2018-Apr-16 02:51N 21°05' E 072°38'0 0.0
2018-Apr-16 02:27N 21°05' E 072°38'0 0.0
2018-Apr-16 01:57N 21°05' E 072°38'0 0.0
2018-Apr-16 01:27N 21°05' E 072°38'0 0.0
2018-Apr-16 00:57N 21°05' E 072°38'0 0.0
2018-Apr-16 00:27N 21°05' E 072°38'0 0.0
2018-Apr-15 23:57N 21°05' E 072°38'0 0.0
2018-Apr-15 23:27N 21°05' E 072°38'0 0.0
2018-Apr-15 22:51N 21°05' E 072°38'0 0.0
2018-Apr-15 22:27N 21°05' E 072°38'0 0.0
2018-Apr-15 21:57N 21°05' E 072°38'0 0.0
2018-Apr-15 21:21N 21°05' E 072°38'0 0.0
2018-Apr-15 20:57N 21°05' E 072°38'0 0.0
2018-Apr-15 19:45N 21°05' E 072°38'0 0.0
2018-Apr-15 19:27N 21°05' E 072°38'0 0.0
2018-Apr-15 18:57N 21°05' E 072°38'0 0.0
2018-Apr-15 18:27N 21°05' E 072°38'0 0.0
2018-Apr-15 17:51N 21°05' E 072°38'0 0.0
2018-Apr-15 17:27N 21°05' E 072°38'0 0.0
2018-Apr-15 16:57N 21°05' E 072°38'0 0.0
2018-Apr-15 16:27N 21°05' E 072°38'0 0.0
2018-Apr-15 15:57N 21°05' E 072°38'0 0.0
2018-Apr-15 15:27N 21°05' E 072°38'0 0.0
2018-Apr-15 14:57N 21°05' E 072°38'0 0.0
2018-Apr-15 14:27N 21°05' E 072°38'0 0.0
2018-Apr-15 13:57N 21°05' E 072°38'0 0.0
2018-Apr-15 13:27N 21°05' E 072°38'0 0.0
2018-Apr-15 12:57N 21°05' E 072°38'0 0.0
2018-Apr-15 12:21N 21°05' E 072°38'0 0.0
2018-Apr-15 11:57N 21°05' E 072°38'0 0.0
2018-Apr-15 11:15N 21°05' E 072°38'0 0.0
2018-Apr-15 10:57N 21°05' E 072°38'0 0.0
2018-Apr-15 10:30N 21°05' E 072°38'1 1.3
2018-Apr-15 10:00N 21°05' E 072°37'3 6.8
2018-Apr-15 09:30N 21°03' E 072°34'4 8.6
2018-Apr-15 09:00N 20°59' E 072°34'4 8.2
2018-Apr-15 08:30N 20°55' E 072°33'1 2.4
2018-Apr-15 08:00N 20°53' E 072°33'3 5.6
2018-Apr-15 07:30N 20°51' E 072°33'510.0
2018-Apr-15 06:59N 20°45' E 072°33'5 9.7
2018-Apr-15 06:30N 20°41' E 072°33'6 9.4
2018-Apr-15 05:52N 20°35' E 072°32'3 9.5
2018-Apr-15 05:30N 20°31' E 072°32'5 8.8
2018-Apr-15 04:58N 20°27' E 072°32'4 9.1
2018-Apr-15 04:30N 20°22' E 072°32'7 9.2
2018-Apr-15 03:42N 20°15' E 072°31'2 9.2
2018-Apr-15 03:30N 20°13' E 072°31'5 9.0
2018-Apr-15 02:57N 20°08' E 072°30'5 9.3
2018-Apr-15 02:27N 20°04' E 072°30'5 9.0
2018-Apr-15 01:53N 19°58' E 072°30'3 8.6
2018-Apr-15 01:30N 19°55' E 072°29'5 8.5
2018-Apr-15 00:58N 19°51' E 072°29'4 8.4
2018-Apr-15 00:28N 19°47' E 072°29'4 8.4
2018-Apr-15 00:00N 19°43' E 072°29'4 8.4
2018-Apr-14 23:30N 19°38' E 072°28'4 8.3
2018-Apr-14 23:00N 19°34' E 072°28'4 8.4
2018-Apr-14 22:30N 19°30' E 072°27'5 8.6
2018-Apr-14 21:56N 19°25' E 072°26'5 8.2
2018-Apr-14 21:18N 19°20' E 072°27'3 8.7
2018-Apr-14 20:57N 19°17' E 072°28'4 8.7
2018-Apr-14 20:30N 19°13' E 072°28'4 7.8
2018-Apr-14 19:55N 19°10' E 072°26'3 6.9
2018-Apr-14 19:30N 19°07' E 072°26'4 8.1
2018-Apr-14 19:00N 19°04' E 072°30'4 8.3
2018-Apr-14 18:30N 19°00' E 072°31'4 8.4
2018-Apr-14 18:00N 18°56' E 072°33'4 8.7
2018-Apr-14 17:30N 18°52' E 072°35'4 7.7
2018-Apr-14 17:00N 18°51' E 072°38'510.1
2018-Apr-14 16:28N 18°50' E 072°44'11 0.4
2018-Apr-13 16:05N 18°56' E 072°54'111.4
2018-Apr-13 15:58N 18°55' E 072°52'5 9.7
2018-Apr-13 15:30N 18°52' E 072°49'4 7.5
2018-Apr-13 14:58N 18°50' E 072°46'3 7.1
2018-Apr-13 14:30N 18°50' E 072°42'4 8.1
2018-Apr-13 14:00N 18°50' E 072°38'4 8.0
2018-Apr-13 13:30N 18°50' E 072°34'4 8.7
2018-Apr-13 13:00N 18°50' E 072°29'612.9
2018-Apr-13 12:31N 18°50' E 072°22'713.7
2018-Apr-13 11:59N 18°51' E 072°15'916.4
2018-Apr-13 11:28N 18°52' E 072°06'917.2
2018-Apr-13 10:56N 18°52' E 071°56'717.2
2018-Apr-13 10:30N 18°52' E 071°48'917.1
2018-Apr-13 09:58N 18°52' E 071°39'817.1
2018-Apr-13 09:30N 18°53' E 071°30'917.3
2018-Apr-13 09:00N 18°53' E 071°21'816.8
2018-Apr-13 08:30N 18°53' E 071°12'816.7
2018-Apr-13 08:00N 18°53' E 071°04'815.6
2018-Apr-13 07:30N 18°58' E 070°57'916.9
2018-Apr-13 06:56N 19°06' E 070°51'817.0
2018-Apr-13 06:28N 19°12' E 070°45'817.0
2018-Apr-13 06:00N 19°18' E 070°41'917.1
2018-Apr-13 05:30N 19°25' E 070°36'816.0
2018-Apr-13 05:00N 19°32' E 070°31'917.1
2018-Apr-13 04:29N 19°39' E 070°25'817.4
2018-Apr-13 04:00N 19°46' E 070°19'817.2
2018-Apr-13 03:30N 19°52' E 070°14'816.3
2018-Apr-13 03:00N 19°60' E 070°10'917.0
2018-Apr-13 02:30N 20°07' E 070°05'2317.0
2018-Apr-13 01:08N 20°26' E 069°51'216.6
2018-Apr-13 01:00N 20°28' E 069°50'1016.7
2018-Apr-13 00:26N 20°36' E 069°44'716.8
2018-Apr-13 00:00N 20°42' E 069°40'2616.8
2018-Apr-12 22:27N 21°03' E 069°23'2517.0
2018-Apr-12 20:58N 21°24' E 069°08'817.2
2018-Apr-12 20:30N 21°30' E 069°03'816.8
2018-Apr-12 20:00N 21°35' E 068°55'1216.9
2018-Apr-12 19:17N 21°44' E 068°46'2117.4
2018-Apr-12 18:04N 22°01' E 068°33'117.4
2018-Apr-12 18:00N 22°02' E 068°33'2716.9
2018-Apr-12 16:25N 22°24' E 068°16'817.2
2018-Apr-12 15:58N 22°31' E 068°12'  
2018-Apr-09 04:02N 23°57' E 065°56'017.8
2018-Apr-09 04:00N 23°56' E 065°56'3217.9
2018-Apr-09 02:14N 23°33' E 065°32'1017.6
2018-Apr-09 01:41N 23°26' E 065°25'417.6
2018-Apr-09 01:28N 23°23' E 065°22'  

Dump ship's entire track history